createdAt,value
2018-12-07T00:01:52.765Z,11.87
2018-12-07T00:04:22.052Z,11.81
2018-12-07T00:06:51.308Z,11.89
2018-12-07T00:09:20.532Z,11.91
2018-12-07T00:11:49.785Z,11.88
2018-12-07T00:14:19.040Z,11.82
2018-12-07T00:16:48.293Z,11.90
2018-12-07T00:19:17.513Z,11.86
2018-12-07T00:21:46.717Z,11.88
2018-12-07T00:24:16.145Z,11.84
2018-12-07T00:26:45.376Z,11.86
2018-12-07T00:29:15.361Z,11.85
2018-12-07T00:31:44.596Z,11.93
2018-12-07T00:34:14.653Z,11.93
2018-12-07T00:36:43.847Z,11.94
2018-12-07T00:39:13.699Z,11.98
2018-12-07T00:41:42.869Z,12.03
2018-12-07T00:44:12.298Z,12.04
2018-12-07T00:46:41.520Z,12.05
2018-12-07T00:49:10.756Z,12.07
2018-12-07T00:51:40.043Z,12.04
2018-12-07T00:54:09.288Z,11.99
2018-12-07T00:56:38.506Z,12.05
2018-12-07T00:59:07.822Z,12.00
2018-12-07T01:01:37.105Z,12.09
2018-12-07T01:04:06.329Z,12.01
2018-12-07T01:06:35.527Z,11.96
2018-12-07T01:09:05.137Z,11.90
2018-12-07T01:11:34.344Z,11.94
2018-12-07T01:14:03.697Z,11.92
2018-12-07T01:16:32.947Z,11.92
2018-12-07T01:19:02.133Z,11.95
2018-12-07T01:21:31.397Z,12.02
2018-12-07T01:24:00.725Z,12.01
2018-12-07T01:26:29.956Z,12.00
2018-12-07T01:28:59.131Z,11.95
2018-12-07T01:31:28.409Z,12.02
2018-12-07T01:33:57.608Z,11.94
2018-12-07T01:36:26.847Z,11.85
2018-12-07T01:38:56.043Z,11.97
2018-12-07T01:41:25.267Z,11.92
2018-12-07T01:43:54.553Z,12.01
2018-12-07T01:46:23.764Z,11.98
2018-12-07T01:48:52.978Z,11.97
2018-12-07T01:51:22.237Z,12.11
2018-12-07T01:53:51.515Z,12.01
2018-12-07T01:56:20.767Z,11.95
2018-12-07T01:58:49.929Z,11.97
2018-12-07T02:01:19.232Z,12.10
2018-12-07T02:03:48.522Z,12.10
2018-12-07T02:06:17.797Z,12.09
2018-12-07T02:08:47.004Z,12.14
2018-12-07T02:11:16.941Z,12.07
2018-12-07T02:13:46.250Z,12.14
2018-12-07T02:16:15.995Z,12.16
2018-12-07T02:18:45.236Z,12.10
2018-12-07T02:21:14.956Z,12.04
2018-12-07T02:23:44.407Z,12.09
2018-12-07T02:26:14.471Z,12.13
2018-12-07T02:28:43.697Z,12.05
2018-12-07T02:31:13.627Z,12.03
2018-12-07T02:33:42.873Z,12.00
2018-12-07T02:36:12.279Z,11.98
2018-12-07T02:38:41.473Z,11.99
2018-12-07T02:41:10.707Z,11.93
2018-12-07T02:43:40.104Z,11.97
2018-12-07T02:46:09.301Z,11.92
2018-12-07T02:48:38.528Z,11.95
2018-12-07T02:51:08.250Z,11.93
2018-12-07T02:53:37.534Z,11.90
2018-12-07T02:56:06.805Z,11.95
2018-12-07T02:58:36.085Z,12.02
2018-12-07T03:01:05.637Z,12.07
2018-12-07T03:03:35.146Z,12.00
2018-12-07T03:06:04.355Z,11.97
2018-12-07T03:08:33.605Z,12.04
2018-12-07T03:11:03.574Z,12.14
2018-12-07T03:13:32.968Z,12.25
2018-12-07T03:16:02.500Z,12.22
2018-12-07T03:18:32.493Z,12.17
2018-12-07T03:21:01.728Z,12.13
2018-12-07T03:23:31.062Z,12.11
2018-12-07T03:26:00.249Z,12.04
2018-12-07T03:28:29.453Z,12.15
2018-12-07T03:30:58.713Z,12.12
2018-12-07T03:33:27.954Z,12.13
2018-12-07T03:35:57.161Z,12.13
2018-12-07T03:38:26.450Z,12.10
2018-12-07T03:40:55.726Z,12.12
2018-12-07T03:43:24.926Z,12.04
2018-12-07T03:45:54.116Z,12.08
2018-12-07T03:48:23.347Z,12.08
2018-12-07T03:50:52.638Z,12.12
2018-12-07T03:53:21.908Z,12.13
2018-12-07T03:55:51.229Z,12.03
2018-12-07T03:58:20.536Z,12.13
2018-12-07T04:00:50.048Z,12.13
2018-12-07T04:03:19.296Z,12.09
2018-12-07T04:05:49.707Z,12.10
2018-12-07T04:08:18.971Z,12.18
2018-12-07T04:10:49.500Z,12.26
2018-12-07T04:13:19.377Z,12.27
2018-12-07T04:15:48.627Z,12.10
2018-12-07T04:18:17.805Z,12.11
2018-12-07T04:20:47.222Z,12.07
2018-12-07T04:23:16.758Z,12.17
2018-12-07T04:25:45.975Z,12.17
2018-12-07T04:28:15.781Z,12.09
2018-12-07T04:30:45.404Z,12.09
2018-12-07T04:33:14.954Z,12.08
2018-12-07T04:35:44.160Z,12.08
2018-12-07T04:38:13.955Z,12.05
2018-12-07T04:40:43.169Z,12.05
2018-12-07T04:43:12.780Z,12.04
2018-12-07T04:45:41.942Z,12.04
2018-12-07T04:48:11.179Z,12.12
2018-12-07T04:50:40.442Z,12.07
2018-12-07T04:53:09.721Z,12.06
2018-12-07T04:55:38.955Z,11.97
2018-12-07T04:58:08.269Z,12.09
2018-12-07T05:00:37.586Z,12.07
2018-12-07T05:03:06.873Z,11.97
2018-12-07T05:05:36.227Z,11.82
2018-12-07T05:08:05.430Z,11.78
2018-12-07T05:10:34.661Z,11.80
2018-12-07T05:13:03.894Z,11.78
2018-12-07T05:15:33.211Z,11.78
2018-12-07T05:18:02.424Z,11.73
2018-12-07T05:20:31.628Z,11.73
2018-12-07T05:23:00.901Z,11.72
2018-12-07T05:25:30.106Z,11.66
2018-12-07T05:27:59.374Z,11.62
2018-12-07T05:30:29.254Z,11.61
2018-12-07T05:32:58.495Z,11.65
2018-12-07T05:35:27.749Z,11.66
2018-12-07T05:37:57.001Z,11.68
2018-12-07T05:40:26.284Z,11.63
2018-12-07T05:42:56.028Z,11.67
2018-12-07T05:45:25.220Z,11.66
2018-12-07T05:47:54.531Z,11.71
2018-12-07T05:50:23.953Z,11.68
2018-12-07T05:52:53.701Z,11.68
2018-12-07T05:55:23.230Z,11.55
2018-12-07T05:57:52.564Z,11.66
2018-12-07T06:00:22.105Z,11.63
2018-12-07T06:02:52.715Z,11.48
2018-12-07T06:05:21.930Z,11.49
2018-12-07T06:07:51.169Z,11.51
2018-12-07T06:10:20.425Z,11.63
2018-12-07T06:12:49.672Z,11.61
2018-12-07T06:15:19.331Z,11.65
2018-12-07T06:17:48.598Z,11.72
2018-12-07T06:20:18.190Z,11.58
2018-12-07T06:22:47.369Z,11.66
2018-12-07T06:25:18.610Z,11.58
2018-12-07T06:27:47.865Z,11.50
2018-12-07T06:30:17.626Z,11.55
2018-12-07T06:32:46.839Z,11.54
2018-12-07T06:35:17.074Z,11.53
2018-12-07T06:37:46.329Z,11.56
2018-12-07T06:40:17.263Z,11.57
2018-12-07T06:42:46.526Z,11.51
2018-12-07T06:45:15.793Z,11.53
2018-12-07T06:47:45.040Z,11.52
2018-12-07T06:50:14.399Z,11.45
2018-12-07T06:52:43.629Z,11.52
2018-12-07T06:55:14.520Z,11.47
2018-12-07T06:57:43.712Z,11.45
2018-12-07T07:00:13.757Z,11.44
2018-12-07T07:02:43.030Z,11.51
2018-12-07T07:05:13.478Z,11.58
2018-12-07T07:07:42.761Z,11.73
2018-12-07T07:10:12.836Z,11.68
2018-12-07T07:12:42.080Z,11.56
2018-12-07T07:15:12.837Z,11.59
2018-12-07T07:17:42.054Z,11.56
2018-12-07T07:20:11.969Z,11.50
2018-12-07T07:22:41.228Z,11.45
2018-12-07T07:25:13.180Z,11.44
2018-12-07T07:27:42.506Z,11.42
2018-12-07T07:30:12.573Z,11.33
2018-12-07T07:32:41.757Z,11.43
2018-12-07T07:35:11.625Z,11.37
2018-12-07T07:37:41.793Z,11.26
2018-12-07T07:40:12.442Z,11.13
2018-12-07T07:42:41.650Z,11.10
2018-12-07T07:45:12.774Z,11.17
2018-12-07T07:47:41.995Z,11.17
2018-12-07T07:50:12.051Z,11.12
2018-12-07T07:52:41.259Z,11.17
2018-12-07T07:55:11.837Z,11.20
2018-12-07T07:57:41.129Z,11.08
2018-12-07T08:00:11.287Z,11.12
2018-12-07T08:02:40.576Z,11.06
2018-12-07T08:05:10.406Z,11.15
2018-12-07T08:07:39.599Z,11.10
2018-12-07T08:10:09.652Z,11.19
2018-12-07T08:12:38.889Z,11.21
2018-12-07T08:15:08.551Z,11.25
2018-12-07T08:17:38.293Z,11.63
2018-12-07T08:20:07.627Z,11.66
2018-12-07T08:22:37.030Z,11.99
2018-12-07T08:25:06.472Z,11.84
2018-12-07T08:27:35.677Z,12.18
2018-12-07T08:30:06.549Z,11.97
2018-12-07T08:32:35.761Z,11.87
2018-12-07T08:35:06.293Z,11.96
2018-12-07T08:37:35.813Z,11.78
2018-12-07T08:40:06.578Z,11.84
2018-12-07T08:42:36.446Z,11.76
2018-12-07T08:45:07.215Z,11.68
2018-12-07T08:47:36.470Z,11.65
2018-12-07T08:50:06.893Z,11.74
2018-12-07T08:52:36.127Z,11.67
2018-12-07T08:55:05.484Z,11.85
2018-12-07T08:57:34.666Z,11.71
2018-12-07T09:00:03.946Z,11.72
2018-12-07T09:02:33.178Z,11.90
2018-12-07T09:05:02.412Z,12.04
2018-12-07T09:07:32.783Z,12.03
2018-12-07T09:10:01.989Z,12.06
2018-12-07T09:12:31.278Z,11.93
2018-12-07T09:15:00.475Z,12.04
2018-12-07T09:17:29.748Z,12.07
2018-12-07T09:19:58.912Z,12.14
2018-12-07T09:22:28.136Z,12.11
2018-12-07T09:24:57.404Z,12.17
2018-12-07T09:27:26.701Z,12.25
2018-12-07T09:29:55.901Z,12.21
2018-12-07T09:32:25.147Z,12.05
2018-12-07T09:34:54.353Z,12.21
2018-12-07T09:37:23.596Z,12.28
2018-12-07T09:39:52.814Z,12.31
2018-12-07T09:42:22.078Z,12.18
2018-12-07T09:44:51.277Z,12.22
2018-12-07T09:47:20.493Z,12.10
2018-12-07T09:49:49.802Z,11.98
2018-12-07T09:52:19.051Z,12.09
2018-12-07T09:54:48.285Z,12.16
2018-12-07T09:57:17.484Z,12.01
2018-12-07T09:59:46.697Z,11.76
2018-12-07T10:02:15.997Z,11.93
2018-12-07T10:04:45.244Z,11.85
2018-12-07T10:07:14.446Z,11.87
2018-12-07T10:09:43.663Z,11.68
2018-12-07T10:12:12.928Z,11.74
2018-12-07T10:14:42.159Z,11.78
2018-12-07T10:17:11.402Z,11.81
2018-12-07T10:19:40.673Z,11.75
2018-12-07T10:22:10.300Z,11.85
2018-12-07T10:24:39.476Z,11.91
2018-12-07T10:27:09.565Z,12.02
2018-12-07T10:29:38.921Z,11.95
2018-12-07T10:32:08.400Z,11.96
2018-12-07T10:34:37.561Z,11.84
2018-12-07T10:37:06.755Z,11.92
2018-12-07T10:39:35.956Z,11.94
2018-12-07T10:42:05.199Z,11.90
2018-12-07T10:44:34.438Z,11.96
2018-12-07T10:47:04.064Z,11.98
2018-12-07T10:49:33.378Z,11.89
2018-12-07T10:52:02.537Z,11.88
2018-12-07T10:54:31.839Z,12.00
2018-12-07T10:57:01.046Z,12.02
2018-12-07T10:59:30.359Z,11.96
2018-12-07T11:02:06.678Z,11.86
2018-12-07T11:04:42.653Z,11.86
2018-12-07T11:07:18.947Z,11.90
2018-12-07T11:09:54.358Z,11.96
2018-12-07T11:12:29.625Z,11.94
2018-12-07T11:15:04.043Z,11.92
2018-12-07T11:17:38.604Z,11.89
2018-12-07T11:20:13.013Z,11.82
2018-12-07T11:22:47.387Z,11.86
2018-12-07T11:25:21.758Z,11.78
2018-12-07T11:27:56.177Z,11.78
2018-12-07T11:30:28.589Z,11.78
2018-12-07T11:33:03.146Z,11.81
2018-12-07T11:35:34.463Z,11.89
2018-12-07T11:38:03.655Z,11.86
2018-12-07T11:40:32.913Z,11.90
2018-12-07T11:43:02.142Z,11.67
2018-12-07T11:45:31.447Z,11.73
2018-12-07T11:48:00.649Z,11.67
2018-12-07T11:50:30.005Z,11.57
2018-12-07T11:52:59.264Z,11.66
2018-12-07T11:55:28.583Z,11.71
2018-12-07T11:57:57.850Z,11.90
2018-12-07T12:00:27.425Z,11.86
2018-12-07T12:02:56.727Z,11.80
2018-12-07T12:05:26.000Z,11.78
2018-12-07T12:07:55.269Z,11.63
2018-12-07T12:10:24.573Z,11.70
2018-12-07T12:12:54.692Z,11.65
2018-12-07T12:15:23.914Z,11.67
2018-12-07T12:17:53.081Z,11.68
2018-12-07T12:20:22.334Z,11.66
2018-12-07T12:22:52.092Z,11.64
2018-12-07T12:25:21.351Z,11.61
2018-12-07T12:27:50.628Z,11.66
2018-12-07T12:30:19.869Z,11.72
2018-12-07T12:32:49.110Z,11.72
2018-12-07T12:35:18.343Z,11.67
2018-12-07T12:37:48.248Z,11.66
2018-12-07T12:40:17.475Z,11.66
2018-12-07T12:42:46.682Z,11.54
2018-12-07T12:45:15.902Z,11.35
2018-12-07T12:47:45.134Z,11.25
2018-12-07T12:50:19.398Z,11.09
2018-12-07T12:52:48.646Z,11.20
2018-12-07T12:55:17.904Z,11.30
2018-12-07T12:57:47.095Z,11.28
2018-12-07T13:00:16.408Z,11.30
2018-12-07T13:02:46.431Z,11.25
2018-12-07T13:05:17.994Z,11.18
2018-12-07T13:07:47.217Z,11.22
2018-12-07T13:10:16.397Z,11.11
2018-12-07T13:12:45.655Z,11.08
2018-12-07T13:15:14.862Z,11.07
2018-12-07T13:17:44.228Z,11.21
2018-12-07T13:20:14.306Z,11.23
2018-12-07T13:22:43.620Z,11.15
2018-12-07T13:25:13.258Z,11.19
2018-12-07T13:27:42.464Z,11.12
2018-12-07T13:30:12.440Z,11.17
2018-12-07T13:32:41.698Z,11.03
2018-12-07T13:35:11.500Z,10.99
2018-12-07T13:37:40.811Z,11.03
2018-12-07T13:40:12.490Z,11.08
2018-12-07T13:42:41.585Z,11.05
2018-12-07T13:45:11.640Z,10.89
2018-12-07T13:47:41.010Z,11.01
2018-12-07T13:50:15.613Z,11.01
2018-12-07T13:52:44.983Z,11.06
2018-12-07T13:55:14.402Z,11.02
2018-12-07T13:57:43.589Z,11.09
2018-12-07T14:00:13.114Z,11.03
2018-12-07T14:02:42.473Z,10.98
2018-12-07T14:05:12.149Z,11.04
2018-12-07T14:07:41.434Z,10.98
2018-12-07T14:10:11.543Z,10.99
2018-12-07T14:12:40.872Z,11.04
2018-12-07T14:15:10.430Z,11.14
2018-12-07T14:17:39.960Z,11.08
2018-12-07T14:20:10.439Z,11.07
2018-12-07T14:22:39.673Z,11.13
2018-12-07T14:25:09.471Z,11.07
2018-12-07T14:27:38.880Z,11.04
2018-12-07T14:30:11.103Z,11.02
2018-12-07T14:32:40.443Z,11.12
2018-12-07T14:35:10.331Z,11.16
2018-12-07T14:37:39.617Z,11.08
2018-12-07T14:40:09.154Z,11.12
2018-12-07T14:42:38.448Z,11.11
2018-12-07T14:45:09.604Z,11.16
2018-12-07T14:47:38.785Z,11.15
2018-12-07T14:50:08.386Z,11.14
2018-12-07T14:52:38.180Z,11.25
2018-12-07T15:00:35.677Z,11.19
2018-12-07T15:03:04.920Z,11.06
2018-12-07T15:05:34.396Z,11.13
2018-12-07T15:08:03.596Z,11.11
2018-12-07T15:10:32.765Z,11.12
2018-12-07T15:13:01.956Z,11.11
2018-12-07T15:15:31.396Z,11.10
2018-12-07T15:18:00.513Z,11.06
2018-12-07T15:20:30.160Z,11.03
2018-12-07T15:22:59.348Z,11.06
2018-12-07T15:25:28.277Z,10.94
2018-12-07T15:27:57.661Z,10.84
2018-12-07T15:30:26.881Z,10.75
2018-12-07T15:32:56.578Z,10.64
2018-12-07T15:35:26.006Z,10.55
2018-12-07T15:37:54.956Z,10.57
2018-12-07T15:40:24.244Z,10.60
2018-12-07T15:42:53.581Z,10.56
2018-12-07T15:45:23.002Z,10.51
2018-12-07T15:47:52.103Z,10.57
2018-12-07T15:50:25.077Z,10.58
2018-12-07T15:52:50.683Z,10.64
2018-12-07T15:55:20.272Z,10.69
2018-12-07T15:57:49.460Z,10.70
2018-12-07T16:00:18.773Z,10.71
2018-12-07T16:02:48.061Z,10.80
2018-12-07T16:05:17.475Z,10.67
2018-12-07T16:07:46.720Z,10.58
2018-12-07T16:10:16.578Z,10.65
2018-12-07T16:12:46.074Z,10.57
2018-12-07T16:15:16.138Z,10.45
2018-12-07T16:17:45.256Z,10.34
2018-12-07T16:20:17.624Z,10.29
2018-12-07T16:22:48.024Z,10.32
2018-12-07T16:25:17.910Z,10.37
2018-12-07T16:27:47.198Z,10.41
2018-12-07T16:30:17.263Z,10.50
2018-12-07T16:32:46.650Z,10.51
2018-12-07T16:35:17.312Z,10.55
2018-12-07T16:37:46.668Z,10.61
2018-12-07T16:40:16.655Z,10.67
2018-12-07T16:42:45.902Z,10.69
2018-12-07T16:45:16.066Z,10.76
2018-12-07T16:47:45.405Z,10.71
2018-12-07T16:50:15.575Z,10.79
2018-12-07T16:52:45.270Z,10.84
2018-12-07T16:55:15.428Z,10.84
2018-12-07T16:57:44.855Z,10.67
2018-12-07T17:00:14.592Z,10.73
2018-12-07T17:02:43.974Z,10.64
2018-12-07T17:05:15.096Z,10.58
2018-12-07T17:07:44.522Z,10.53
2018-12-07T17:10:14.276Z,10.52
2018-12-07T17:12:43.655Z,10.35
2018-12-07T17:15:13.710Z,10.43
2018-12-07T17:17:43.370Z,10.41
2018-12-07T17:20:12.813Z,10.38
2018-12-07T17:22:44.141Z,10.44
2018-12-07T17:25:14.157Z,10.40
2018-12-07T17:27:43.227Z,10.18
2018-12-07T17:30:12.581Z,10.29
2018-12-07T17:32:41.810Z,10.18
2018-12-07T17:35:11.079Z,10.24
2018-12-07T17:37:40.294Z,10.17
2018-12-07T17:40:09.554Z,10.13
2018-12-07T17:42:38.974Z,10.16
2018-12-07T17:45:08.271Z,10.11
2018-12-07T17:47:37.517Z,9.99
2018-12-07T17:50:07.424Z,10.07
2018-12-07T17:52:36.562Z,10.01
2018-12-07T17:55:06.035Z,10.04
2018-12-07T17:57:35.236Z,9.98
2018-12-07T18:00:04.783Z,10.06
2018-12-07T18:02:33.997Z,9.98
2018-12-07T18:05:03.453Z,10.15
2018-12-07T18:07:32.577Z,10.02
2018-12-07T18:10:01.820Z,10.01
2018-12-07T18:12:31.101Z,10.00
2018-12-07T18:15:00.447Z,10.07
2018-12-07T18:17:29.582Z,10.05
2018-12-07T18:19:58.939Z,10.08
2018-12-07T18:22:28.485Z,10.05
2018-12-07T18:24:57.570Z,10.00
2018-12-07T18:27:26.779Z,9.93
2018-12-07T18:29:56.404Z,9.90
2018-12-07T18:32:25.751Z,9.84
2018-12-07T18:34:55.154Z,9.78
2018-12-07T18:37:24.268Z,9.82
2018-12-07T18:39:53.798Z,9.89
2018-12-07T18:42:22.933Z,9.94
2018-12-07T18:44:52.150Z,9.82
2018-12-07T18:47:21.345Z,9.82
2018-12-07T18:49:50.829Z,9.81
2018-12-07T18:52:19.909Z,9.87
2018-12-07T18:54:49.152Z,9.89
2018-12-07T18:57:18.824Z,9.93
2018-12-07T18:59:49.004Z,9.92
2018-12-07T19:02:18.304Z,9.84
2018-12-07T19:04:47.479Z,9.90
2018-12-07T19:07:16.692Z,9.91
2018-12-07T19:09:46.069Z,9.96
2018-12-07T19:12:15.887Z,9.90
2018-12-07T19:14:45.041Z,9.98
2018-12-07T19:17:15.168Z,9.96
2018-12-07T19:19:44.179Z,10.09
2018-12-07T19:22:13.650Z,10.08
2018-12-07T19:24:43.045Z,10.15
2018-12-07T19:27:12.079Z,10.21
2018-12-07T19:29:41.404Z,10.13
2018-12-07T19:32:10.502Z,10.16
2018-12-07T19:34:39.767Z,10.19
2018-12-07T19:37:09.200Z,10.23
2018-12-07T19:39:38.407Z,10.22
2018-12-07T19:42:07.611Z,10.33
2018-12-07T19:44:36.774Z,10.33
2018-12-07T19:47:06.650Z,10.35
2018-12-07T19:49:35.769Z,10.36
2018-12-07T19:52:05.255Z,10.36
2018-12-07T19:54:34.355Z,10.46
2018-12-07T19:57:03.819Z,10.45
2018-12-07T19:59:32.833Z,10.43
2018-12-07T20:02:02.220Z,10.53
2018-12-07T20:04:31.567Z,10.52
2018-12-07T20:07:01.349Z,10.54
2018-12-07T20:09:30.650Z,10.46
2018-12-07T20:12:00.228Z,10.39
2018-12-07T20:14:29.229Z,10.45
2018-12-07T20:16:58.587Z,10.42
2018-12-07T20:19:27.886Z,10.36
2018-12-07T20:21:57.182Z,10.33
2018-12-07T20:24:26.652Z,10.21
2018-12-07T20:26:55.580Z,10.06
2018-12-07T20:29:25.170Z,10.06
2018-12-07T20:31:54.367Z,9.96
2018-12-07T20:34:23.511Z,9.93
2018-12-07T20:36:52.732Z,9.85
2018-12-07T20:39:22.155Z,9.88
2018-12-07T20:41:51.438Z,9.86
2018-12-07T20:44:20.779Z,9.90
2018-12-07T20:46:50.120Z,9.92
2018-12-07T20:49:19.346Z,9.89
2018-12-07T20:51:48.572Z,9.89
2018-12-07T20:54:17.803Z,9.76
2018-12-07T20:56:47.109Z,9.67
2018-12-07T20:59:16.473Z,9.58
2018-12-07T21:01:51.619Z,9.56
2018-12-07T21:04:28.949Z,9.58
2018-12-07T21:09:19.072Z,9.56
2018-12-07T21:11:53.674Z,9.43
2018-12-07T21:14:34.212Z,9.48
2018-12-07T21:17:18.260Z,9.48
2018-12-07T21:19:55.240Z,9.42
2018-12-07T21:22:24.484Z,9.46
2018-12-07T21:24:53.412Z,9.39
2018-12-07T21:27:22.700Z,9.32
2018-12-07T21:30:06.727Z,9.40
2018-12-07T21:32:35.811Z,9.43
2018-12-07T21:35:09.796Z,9.40
2018-12-07T21:37:39.123Z,9.41
2018-12-07T21:40:14.251Z,9.38
2018-12-07T21:42:43.933Z,9.20
2018-12-07T21:45:13.903Z,9.23
2018-12-07T21:48:03.259Z,9.31
2018-12-07T21:50:33.422Z,9.19
2018-12-07T21:53:02.407Z,9.13
2018-12-07T21:55:31.768Z,9.06
2018-12-07T21:58:01.847Z,9.02
2018-12-07T22:00:31.274Z,8.96
2018-12-07T22:03:02.084Z,8.68
2018-12-07T22:05:30.083Z,8.66
2018-12-07T22:07:59.146Z,8.57
2018-12-07T22:10:28.427Z,8.42
2018-12-07T22:12:57.717Z,8.34
2018-12-07T22:15:27.526Z,8.20
2018-12-07T22:17:56.681Z,8.17
2018-12-07T22:20:26.205Z,8.06
2018-12-07T22:22:55.620Z,8.04
2018-12-07T22:25:24.909Z,7.97
2018-12-07T22:27:54.046Z,7.86
2018-12-07T22:30:23.189Z,7.90
2018-12-07T22:32:52.421Z,8.00
2018-12-07T22:35:21.717Z,7.93
2018-12-07T22:37:51.088Z,7.81
2018-12-07T22:40:20.883Z,7.77
2018-12-07T22:42:50.439Z,7.78
2018-12-07T22:45:19.705Z,7.63
2018-12-07T22:47:48.643Z,7.69
2018-12-07T22:50:19.413Z,7.63
2018-12-07T22:52:48.659Z,7.65
2018-12-07T22:55:18.609Z,7.67
2018-12-07T22:57:47.908Z,7.54
2018-12-07T23:00:22.504Z,7.48
2018-12-07T23:02:51.750Z,7.46
2018-12-07T23:05:20.946Z,7.41
2018-12-07T23:07:50.225Z,7.41
2018-12-07T23:10:19.802Z,7.35
2018-12-07T23:12:51.917Z,7.32
2018-12-07T23:15:21.308Z,7.28
2018-12-07T23:17:50.566Z,7.43
2018-12-07T23:20:20.430Z,7.44
2018-12-07T23:22:49.710Z,7.52
2018-12-07T23:25:18.930Z,7.66
2018-12-07T23:27:48.170Z,7.74
2018-12-07T23:30:18.814Z,7.84
2018-12-07T23:32:48.055Z,7.87
2018-12-07T23:35:18.223Z,7.76
2018-12-07T23:37:47.478Z,7.78
2018-12-07T23:40:17.876Z,7.85
2018-12-07T23:42:47.992Z,7.82
2018-12-07T23:45:18.007Z,7.77
2018-12-07T23:47:47.268Z,7.83
2018-12-07T23:50:17.710Z,7.79
2018-12-07T23:52:46.881Z,7.78
2018-12-07T23:55:17.355Z,7.63
2018-12-07T23:57:46.557Z,7.57
